sensor_id;sensor_type;location;lat;lon;timestamp;P1;durP1;ratioP1;P2;durP2;ratioP2
12675;SDS011;63820;65.654;21.944;2023-04-16T00:01:04;7.47;;;3.60;;
12675;SDS011;63820;65.654;21.944;2023-04-16T00:03:48;4.30;;;2.80;;
12675;SDS011;63820;65.654;21.944;2023-04-16T00:06:33;5.67;;;2.70;;
12675;SDS011;63820;65.654;21.944;2023-04-16T00:09:17;5.27;;;2.50;;
12675;SDS011;63820;65.654;21.944;2023-04-16T00:12:01;7.23;;;3.27;;
12675;SDS011;63820;65.654;21.944;2023-04-16T00:14:45;4.47;;;2.60;;
12675;SDS011;63820;65.654;21.944;2023-04-16T00:17:29;8.17;;;3.10;;
12675;SDS011;63820;65.654;21.944;2023-04-16T00:20:13;3.97;;;2.60;;
12675;SDS011;63820;65.654;21.944;2023-04-16T00:22:58;4.53;;;2.70;;
12675;SDS011;63820;65.654;21.944;2023-04-16T00:25:42;4.97;;;3.03;;
12675;SDS011;63820;65.654;21.944;2023-04-16T00:28:26;6.37;;;2.57;;
12675;SDS011;63820;65.654;21.944;2023-04-16T00:31:10;3.10;;;2.27;;
12675;SDS011;63820;65.654;21.944;2023-04-16T00:33:54;5.67;;;2.43;;
12675;SDS011;63820;65.654;21.944;2023-04-16T00:36:38;4.17;;;2.20;;
12675;SDS011;63820;65.654;21.944;2023-04-16T00:39:22;4.87;;;2.47;;
12675;SDS011;63820;65.654;21.944;2023-04-16T00:42:07;6.50;;;2.57;;
12675;SDS011;63820;65.654;21.944;2023-04-16T00:44:51;8.57;;;2.50;;
12675;SDS011;63820;65.654;21.944;2023-04-16T00:47:35;7.90;;;2.97;;
12675;SDS011;63820;65.654;21.944;2023-04-16T00:50:20;5.93;;;2.63;;
12675;SDS011;63820;65.654;21.944;2023-04-16T00:53:04;5.10;;;2.70;;
12675;SDS011;63820;65.654;21.944;2023-04-16T00:55:49;7.67;;;2.87;;
12675;SDS011;63820;65.654;21.944;2023-04-16T00:58:34;4.40;;;2.43;;
12675;SDS011;63820;65.654;21.944;2023-04-16T01:01:18;7.03;;;2.73;;
12675;SDS011;63820;65.654;21.944;2023-04-16T01:04:02;4.10;;;2.40;;
12675;SDS011;63820;65.654;21.944;2023-04-16T01:06:47;5.13;;;2.87;;
12675;SDS011;63820;65.654;21.944;2023-04-16T01:09:31;5.10;;;2.27;;
12675;SDS011;63820;65.654;21.944;2023-04-16T01:12:15;5.17;;;2.67;;
12675;SDS011;63820;65.654;21.944;2023-04-16T01:14:59;7.57;;;3.10;;
12675;SDS011;63820;65.654;21.944;2023-04-16T01:17:44;5.43;;;3.13;;
12675;SDS011;63820;65.654;21.944;2023-04-16T01:20:28;7.10;;;3.10;;
12675;SDS011;63820;65.654;21.944;2023-04-16T01:23:18;7.77;;;2.60;;
12675;SDS011;63820;65.654;21.944;2023-04-16T01:26:02;5.07;;;2.53;;
12675;SDS011;63820;65.654;21.944;2023-04-16T01:28:46;3.97;;;2.30;;
12675;SDS011;63820;65.654;21.944;2023-04-16T01:31:30;6.20;;;2.33;;
12675;SDS011;63820;65.654;21.944;2023-04-16T01:34:14;6.83;;;2.60;;
12675;SDS011;63820;65.654;21.944;2023-04-16T01:36:58;6.13;;;2.67;;
12675;SDS011;63820;65.654;21.944;2023-04-16T01:39:42;4.77;;;3.03;;
12675;SDS011;63820;65.654;21.944;2023-04-16T01:42:27;3.50;;;2.67;;
12675;SDS011;63820;65.654;21.944;2023-04-16T01:45:11;6.33;;;2.47;;
12675;SDS011;63820;65.654;21.944;2023-04-16T01:47:55;4.80;;;2.37;;
12675;SDS011;63820;65.654;21.944;2023-04-16T01:50:40;5.17;;;2.50;;
12675;SDS011;63820;65.654;21.944;2023-04-16T01:53:24;6.33;;;2.80;;
12675;SDS011;63820;65.654;21.944;2023-04-16T01:56:08;8.70;;;2.47;;
12675;SDS011;63820;65.654;21.944;2023-04-16T01:58:52;4.90;;;2.53;;
12675;SDS011;63820;65.654;21.944;2023-04-16T02:01:36;5.37;;;2.60;;
12675;SDS011;63820;65.654;21.944;2023-04-16T02:04:20;8.10;;;2.60;;
12675;SDS011;63820;65.654;21.944;2023-04-16T02:07:05;5.33;;;2.50;;
12675;SDS011;63820;65.654;21.944;2023-04-16T02:09:50;5.47;;;2.70;;
12675;SDS011;63820;65.654;21.944;2023-04-16T02:12:34;5.07;;;2.80;;
12675;SDS011;63820;65.654;21.944;2023-04-16T02:15:18;5.43;;;2.50;;
12675;SDS011;63820;65.654;21.944;2023-04-16T02:18:02;6.33;;;2.93;;
12675;SDS011;63820;65.654;21.944;2023-04-16T02:20:46;5.13;;;2.93;;
12675;SDS011;63820;65.654;21.944;2023-04-16T02:23:32;4.17;;;2.30;;
12675;SDS011;63820;65.654;21.944;2023-04-16T02:26:16;4.63;;;2.83;;
12675;SDS011;63820;65.654;21.944;2023-04-16T02:29:00;6.40;;;2.20;;
12675;SDS011;63820;65.654;21.944;2023-04-16T02:31:44;7.77;;;2.67;;
12675;SDS011;63820;65.654;21.944;2023-04-16T02:34:29;5.33;;;2.70;;
12675;SDS011;63820;65.654;21.944;2023-04-16T02:37:13;5.10;;;2.73;;
12675;SDS011;63820;65.654;21.944;2023-04-16T02:39:58;3.57;;;2.53;;
12675;SDS011;63820;65.654;21.944;2023-04-16T02:42:42;4.07;;;2.60;;
12675;SDS011;63820;65.654;21.944;2023-04-16T02:45:25;3.53;;;2.20;;
12675;SDS011;63820;65.654;21.944;2023-04-16T02:48:10;4.70;;;2.63;;
12675;SDS011;63820;65.654;21.944;2023-04-16T02:50:55;4.43;;;2.47;;
12675;SDS011;63820;65.654;21.944;2023-04-16T02:53:38;7.03;;;3.13;;
12675;SDS011;63820;65.654;21.944;2023-04-16T02:56:22;5.27;;;2.70;;
12675;SDS011;63820;65.654;21.944;2023-04-16T02:59:06;4.50;;;2.80;;
12675;SDS011;63820;65.654;21.944;2023-04-16T03:01:50;5.20;;;2.87;;
12675;SDS011;63820;65.654;21.944;2023-04-16T03:04:34;4.47;;;2.47;;
12675;SDS011;63820;65.654;21.944;2023-04-16T03:07:19;3.57;;;2.37;;
12675;SDS011;63820;65.654;21.944;2023-04-16T03:10:03;6.47;;;2.43;;
12675;SDS011;63820;65.654;21.944;2023-04-16T03:12:48;3.67;;;2.33;;
12675;SDS011;63820;65.654;21.944;2023-04-16T03:15:33;5.90;;;2.57;;
12675;SDS011;63820;65.654;21.944;2023-04-16T03:18:17;6.77;;;2.20;;
12675;SDS011;63820;65.654;21.944;2023-04-16T03:21:01;4.30;;;2.23;;
12675;SDS011;63820;65.654;21.944;2023-04-16T03:23:46;6.00;;;2.47;;
12675;SDS011;63820;65.654;21.944;2023-04-16T03:26:30;4.93;;;2.13;;
12675;SDS011;63820;65.654;21.944;2023-04-16T03:29:14;3.87;;;1.97;;
12675;SDS011;63820;65.654;21.944;2023-04-16T03:31:58;3.93;;;2.33;;
12675;SDS011;63820;65.654;21.944;2023-04-16T03:34:42;3.40;;;2.07;;
12675;SDS011;63820;65.654;21.944;2023-04-16T03:37:27;3.67;;;2.33;;
12675;SDS011;63820;65.654;21.944;2023-04-16T03:40:11;4.27;;;2.63;;
12675;SDS011;63820;65.654;21.944;2023-04-16T03:42:56;5.27;;;2.20;;
12675;SDS011;63820;65.654;21.944;2023-04-16T03:45:43;3.27;;;1.97;;
12675;SDS011;63820;65.654;21.944;2023-04-16T03:48:28;4.20;;;2.40;;
12675;SDS011;63820;65.654;21.944;2023-04-16T03:51:12;4.63;;;2.30;;
12675;SDS011;63820;65.654;21.944;2023-04-16T03:53:56;3.83;;;2.50;;
12675;SDS011;63820;65.654;21.944;2023-04-16T03:56:40;4.00;;;2.00;;
12675;SDS011;63820;65.654;21.944;2023-04-16T03:59:25;2.80;;;1.90;;
12675;SDS011;63820;65.654;21.944;2023-04-16T04:02:09;3.70;;;2.60;;
12675;SDS011;63820;65.654;21.944;2023-04-16T04:04:53;4.27;;;2.27;;
12675;SDS011;63820;65.654;21.944;2023-04-16T04:07:38;4.20;;;2.37;;
12675;SDS011;63820;65.654;21.944;2023-04-16T04:10:22;5.33;;;2.60;;
12675;SDS011;63820;65.654;21.944;2023-04-16T04:13:06;5.13;;;2.50;;
12675;SDS011;63820;65.654;21.944;2023-04-16T04:15:50;5.30;;;2.10;;
12675;SDS011;63820;65.654;21.944;2023-04-16T04:18:35;5.23;;;2.63;;
12675;SDS011;63820;65.654;21.944;2023-04-16T04:21:19;5.30;;;2.70;;
12675;SDS011;63820;65.654;21.944;2023-04-16T04:24:03;3.13;;;2.40;;
12675;SDS011;63820;65.654;21.944;2023-04-16T04:26:47;3.90;;;2.20;;
12675;SDS011;63820;65.654;21.944;2023-04-16T04:29:31;6.03;;;2.40;;
12675;SDS011;63820;65.654;21.944;2023-04-16T04:32:15;4.53;;;2.30;;
12675;SDS011;63820;65.654;21.944;2023-04-16T04:35:00;5.03;;;2.50;;
12675;SDS011;63820;65.654;21.944;2023-04-16T04:37:45;2.83;;;2.07;;
12675;SDS011;63820;65.654;21.944;2023-04-16T04:40:30;4.33;;;2.30;;
12675;SDS011;63820;65.654;21.944;2023-04-16T04:43:14;4.47;;;2.33;;
12675;SDS011;63820;65.654;21.944;2023-04-16T04:45:58;3.53;;;2.30;;
12675;SDS011;63820;65.654;21.944;2023-04-16T04:48:42;3.50;;;2.10;;
12675;SDS011;63820;65.654;21.944;2023-04-16T04:51:26;4.03;;;2.13;;
12675;SDS011;63820;65.654;21.944;2023-04-16T04:54:10;2.57;;;2.13;;
12675;SDS011;63820;65.654;21.944;2023-04-16T04:56:54;2.97;;;2.00;;
12675;SDS011;63820;65.654;21.944;2023-04-16T04:59:39;3.67;;;2.33;;
12675;SDS011;63820;65.654;21.944;2023-04-16T05:02:23;4.23;;;2.33;;
12675;SDS011;63820;65.654;21.944;2023-04-16T05:05:07;3.80;;;2.00;;
12675;SDS011;63820;65.654;21.944;2023-04-16T05:07:51;2.83;;;2.20;;
12675;SDS011;63820;65.654;21.944;2023-04-16T05:10:35;4.00;;;2.27;;
12675;SDS011;63820;65.654;21.944;2023-04-16T05:13:19;3.80;;;2.20;;
12675;SDS011;63820;65.654;21.944;2023-04-16T05:16:04;3.47;;;1.90;;
12675;SDS011;63820;65.654;21.944;2023-04-16T05:18:48;3.57;;;2.20;;
12675;SDS011;63820;65.654;21.944;2023-04-16T05:21:33;2.27;;;1.90;;
12675;SDS011;63820;65.654;21.944;2023-04-16T05:24:17;3.30;;;2.10;;
12675;SDS011;63820;65.654;21.944;2023-04-16T05:27:02;4.67;;;2.00;;
12675;SDS011;63820;65.654;21.944;2023-04-16T05:29:46;3.60;;;1.83;;
12675;SDS011;63820;65.654;21.944;2023-04-16T05:32:30;3.23;;;1.60;;
12675;SDS011;63820;65.654;21.944;2023-04-16T05:35:14;4.20;;;2.13;;
12675;SDS011;63820;65.654;21.944;2023-04-16T05:37:58;3.50;;;1.90;;
12675;SDS011;63820;65.654;21.944;2023-04-16T05:40:42;3.87;;;2.00;;
12675;SDS011;63820;65.654;21.944;2023-04-16T05:43:26;4.07;;;2.00;;
12675;SDS011;63820;65.654;21.944;2023-04-16T05:46:10;3.03;;;2.20;;
12675;SDS011;63820;65.654;21.944;2023-04-16T05:48:54;3.37;;;2.17;;
12675;SDS011;63820;65.654;21.944;2023-04-16T05:51:38;4.37;;;2.10;;
12675;SDS011;63820;65.654;21.944;2023-04-16T05:54:22;4.33;;;1.90;;
12675;SDS011;63820;65.654;21.944;2023-04-16T05:57:06;4.00;;;2.00;;
12675;SDS011;63820;65.654;21.944;2023-04-16T05:59:50;3.37;;;2.30;;
12675;SDS011;63820;65.654;21.944;2023-04-16T06:02:34;2.70;;;2.37;;
12675;SDS011;63820;65.654;21.944;2023-04-16T06:05:18;3.53;;;2.27;;
12675;SDS011;63820;65.654;21.944;2023-04-16T06:08:03;2.83;;;2.40;;
12675;SDS011;63820;65.654;21.944;2023-04-16T06:10:47;3.83;;;2.60;;
12675;SDS011;63820;65.654;21.944;2023-04-16T06:13:31;4.40;;;2.70;;
12675;SDS011;63820;65.654;21.944;2023-04-16T06:16:15;3.83;;;2.40;;
12675;SDS011;63820;65.654;21.944;2023-04-16T06:18:59;4.10;;;2.70;;
12675;SDS011;63820;65.654;21.944;2023-04-16T06:21:43;3.70;;;2.40;;
12675;SDS011;63820;65.654;21.944;2023-04-16T06:24:28;4.17;;;2.40;;
12675;SDS011;63820;65.654;21.944;2023-04-16T06:27:12;3.53;;;2.30;;
12675;SDS011;63820;65.654;21.944;2023-04-16T06:29:56;4.20;;;2.30;;
12675;SDS011;63820;65.654;21.944;2023-04-16T06:32:41;4.15;;;2.05;;
12675;SDS011;63820;65.654;21.944;2023-04-16T06:35:26;2.60;;;2.17;;
12675;SDS011;63820;65.654;21.944;2023-04-16T06:38:10;2.42;;;2.10;;
12675;SDS011;63820;65.654;21.944;2023-04-16T06:40:54;4.75;;;2.33;;
12675;SDS011;63820;65.654;21.944;2023-04-16T06:43:39;4.45;;;2.30;;
12675;SDS011;63820;65.654;21.944;2023-04-16T06:46:23;3.35;;;2.22;;
12675;SDS011;63820;65.654;21.944;2023-04-16T06:49:08;2.30;;;2.10;;
12675;SDS011;63820;65.654;21.944;2023-04-16T06:51:52;2.50;;;2.17;;
12675;SDS011;63820;65.654;21.944;2023-04-16T06:54:36;3.10;;;2.25;;
12675;SDS011;63820;65.654;21.944;2023-04-16T06:57:21;4.15;;;2.50;;
12675;SDS011;63820;65.654;21.944;2023-04-16T07:00:05;6.25;;;2.40;;
12675;SDS011;63820;65.654;21.944;2023-04-16T07:02:50;3.17;;;2.65;;
12675;SDS011;63820;65.654;21.944;2023-04-16T07:05:34;2.35;;;2.15;;
12675;SDS011;63820;65.654;21.944;2023-04-16T07:08:18;2.72;;;2.10;;
12675;SDS011;63820;65.654;21.944;2023-04-16T07:11:02;3.03;;;2.22;;
12675;SDS011;63820;65.654;21.944;2023-04-16T07:13:46;4.45;;;2.63;;
12675;SDS011;63820;65.654;21.944;2023-04-16T07:16:31;2.58;;;2.30;;
12675;SDS011;63820;65.654;21.944;2023-04-16T07:19:15;3.20;;;2.60;;
12675;SDS011;63820;65.654;21.944;2023-04-16T07:21:59;3.40;;;2.55;;
12675;SDS011;63820;65.654;21.944;2023-04-16T07:24:44;5.88;;;2.75;;
12675;SDS011;63820;65.654;21.944;2023-04-16T07:27:28;3.15;;;2.70;;
12675;SDS011;63820;65.654;21.944;2023-04-16T07:30:12;3.45;;;2.92;;
12675;SDS011;63820;65.654;21.944;2023-04-16T07:32:56;4.35;;;2.40;;
12675;SDS011;63820;65.654;21.944;2023-04-16T07:35:40;2.47;;;2.20;;
12675;SDS011;63820;65.654;21.944;2023-04-16T07:38:24;2.35;;;2.15;;
12675;SDS011;63820;65.654;21.944;2023-04-16T07:41:08;3.53;;;2.30;;
12675;SDS011;63820;65.654;21.944;2023-04-16T07:43:53;2.63;;;2.33;;
12675;SDS011;63820;65.654;21.944;2023-04-16T07:46:37;2.60;;;2.40;;
12675;SDS011;63820;65.654;21.944;2023-04-16T07:49:21;3.95;;;2.45;;
12675;SDS011;63820;65.654;21.944;2023-04-16T07:52:05;3.42;;;2.40;;
12675;SDS011;63820;65.654;21.944;2023-04-16T07:54:49;3.88;;;2.85;;
12675;SDS011;63820;65.654;21.944;2023-04-16T07:57:34;3.17;;;2.88;;
12675;SDS011;63820;65.654;21.944;2023-04-16T08:00:19;6.68;;;2.78;;
12675;SDS011;63820;65.654;21.944;2023-04-16T08:03:03;3.13;;;2.65;;
12675;SDS011;63820;65.654;21.944;2023-04-16T08:05:48;3.63;;;2.45;;
12675;SDS011;63820;65.654;21.944;2023-04-16T08:08:31;2.95;;;2.50;;
12675;SDS011;63820;65.654;21.944;2023-04-16T08:11:15;4.45;;;2.70;;
12675;SDS011;63820;65.654;21.944;2023-04-16T08:13:59;3.00;;;2.80;;
12675;SDS011;63820;65.654;21.944;2023-04-16T08:16:43;3.60;;;2.42;;
12675;SDS011;63820;65.654;21.944;2023-04-16T08:19:27;4.78;;;2.67;;
12675;SDS011;63820;65.654;21.944;2023-04-16T08:22:12;3.13;;;2.50;;
12675;SDS011;63820;65.654;21.944;2023-04-16T08:24:56;3.78;;;2.83;;
12675;SDS011;63820;65.654;21.944;2023-04-16T08:27:41;4.30;;;2.53;;
12675;SDS011;63820;65.654;21.944;2023-04-16T08:30:25;3.38;;;2.47;;
12675;SDS011;63820;65.654;21.944;2023-04-16T08:33:10;3.13;;;2.60;;
12675;SDS011;63820;65.654;21.944;2023-04-16T08:35:54;3.88;;;2.40;;
12675;SDS011;63820;65.654;21.944;2023-04-16T08:38:38;2.95;;;2.30;;
12675;SDS011;63820;65.654;21.944;2023-04-16T08:41:23;4.25;;;2.42;;
12675;SDS011;63820;65.654;21.944;2023-04-16T08:44:30;3.15;;;2.17;;
12675;SDS011;63820;65.654;21.944;2023-04-16T08:47:16;3.00;;;2.70;;
12675;SDS011;63820;65.654;21.944;2023-04-16T08:50:02;3.13;;;2.38;;
12675;SDS011;63820;65.654;21.944;2023-04-16T08:52:52;3.38;;;2.67;;
12675;SDS011;63820;65.654;21.944;2023-04-16T08:55:44;4.45;;;2.78;;
12675;SDS011;63820;65.654;21.944;2023-04-16T08:58:31;3.67;;;2.33;;
12675;SDS011;63820;65.654;21.944;2023-04-16T09:01:18;3.17;;;2.58;;
12675;SDS011;63820;65.654;21.944;2023-04-16T09:04:03;2.50;;;2.30;;
12675;SDS011;63820;65.654;21.944;2023-04-16T09:06:49;2.30;;;2.13;;
12675;SDS011;63820;65.654;21.944;2023-04-16T09:09:35;3.00;;;2.70;;
12675;SDS011;63820;65.654;21.944;2023-04-16T09:12:24;3.00;;;2.70;;
12675;SDS011;63820;65.654;21.944;2023-04-16T09:15:09;4.05;;;2.78;;
12675;SDS011;63820;65.654;21.944;2023-04-16T09:17:55;3.72;;;2.25;;
12675;SDS011;63820;65.654;21.944;2023-04-16T09:20:40;2.80;;;2.47;;
12675;SDS011;63820;65.654;21.944;2023-04-16T09:23:24;3.60;;;2.50;;
12675;SDS011;63820;65.654;21.944;2023-04-16T09:26:08;4.30;;;2.53;;
12675;SDS011;63820;65.654;21.944;2023-04-16T09:28:52;3.03;;;2.42;;
12675;SDS011;63820;65.654;21.944;2023-04-16T09:31:37;4.32;;;2.35;;
12675;SDS011;63820;65.654;21.944;2023-04-16T09:34:22;2.83;;;2.45;;
12675;SDS011;63820;65.654;21.944;2023-04-16T09:37:15;2.97;;;2.08;;
12675;SDS011;63820;65.654;21.944;2023-04-16T09:40:01;3.60;;;2.50;;
12675;SDS011;63820;65.654;21.944;2023-04-16T09:42:46;3.20;;;2.50;;
12675;SDS011;63820;65.654;21.944;2023-04-16T09:45:33;3.10;;;2.47;;
12675;SDS011;63820;65.654;21.944;2023-04-16T09:48:39;4.10;;;2.20;;
12675;SDS011;63820;65.654;21.944;2023-04-16T09:51:23;4.38;;;1.92;;
12675;SDS011;63820;65.654;21.944;2023-04-16T09:54:09;2.95;;;2.47;;
12675;SDS011;63820;65.654;21.944;2023-04-16T09:56:55;3.25;;;2.40;;
12675;SDS011;63820;65.654;21.944;2023-04-16T09:59:39;4.13;;;2.38;;
12675;SDS011;63820;65.654;21.944;2023-04-16T10:02:27;4.45;;;2.50;;
12675;SDS011;63820;65.654;21.944;2023-04-16T10:05:13;4.90;;;2.45;;
12675;SDS011;63820;65.654;21.944;2023-04-16T10:08:01;2.95;;;2.20;;
12675;SDS011;63820;65.654;21.944;2023-04-16T10:10:45;2.67;;;2.20;;
12675;SDS011;63820;65.654;21.944;2023-04-16T10:13:30;4.18;;;2.65;;
12675;SDS011;63820;65.654;21.944;2023-04-16T10:16:15;5.78;;;2.90;;
12675;SDS011;63820;65.654;21.944;2023-04-16T10:19:00;4.53;;;2.50;;
12675;SDS011;63820;65.654;21.944;2023-04-16T10:21:45;4.68;;;2.30;;
12675;SDS011;63820;65.654;21.944;2023-04-16T10:24:30;3.70;;;2.60;;
12675;SDS011;63820;65.654;21.944;2023-04-16T10:27:16;3.33;;;2.67;;
12675;SDS011;63820;65.654;21.944;2023-04-16T10:30:02;5.82;;;2.83;;
12675;SDS011;63820;65.654;21.944;2023-04-16T10:32:49;3.10;;;2.90;;
12675;SDS011;63820;65.654;21.944;2023-04-16T10:35:38;5.43;;;3.75;;
12675;SDS011;63820;65.654;21.944;2023-04-16T10:38:26;3.45;;;3.10;;
12675;SDS011;63820;65.654;21.944;2023-04-16T10:41:11;5.47;;;3.28;;
12675;SDS011;63820;65.654;21.944;2023-04-16T10:44:08;6.63;;;3.28;;
12675;SDS011;63820;65.654;21.944;2023-04-16T10:46:53;3.95;;;2.92;;
12675;SDS011;63820;65.654;21.944;2023-04-16T10:49:38;8.40;;;3.30;;
12675;SDS011;63820;65.654;21.944;2023-04-16T10:52:22;4.20;;;3.25;;
12675;SDS011;63820;65.654;21.944;2023-04-16T10:55:14;6.43;;;3.92;;
12675;SDS011;63820;65.654;21.944;2023-04-16T10:58:00;8.00;;;4.55;;
12675;SDS011;63820;65.654;21.944;2023-04-16T11:00:51;9.02;;;5.25;;
12675;SDS011;63820;65.654;21.944;2023-04-16T11:03:35;13.10;;;7.05;;
12675;SDS011;63820;65.654;21.944;2023-04-16T11:06:23;10.38;;;7.95;;
12675;SDS011;63820;65.654;21.944;2023-04-16T11:09:11;12.20;;;8.48;;
12675;SDS011;63820;65.654;21.944;2023-04-16T11:15:13;12.88;;;9.32;;
12675;SDS011;63820;65.654;21.944;2023-04-16T11:17:58;10.65;;;8.38;;
12675;SDS011;63820;65.654;21.944;2023-04-16T11:20:43;10.30;;;8.77;;
12675;SDS011;63820;65.654;21.944;2023-04-16T11:23:27;10.93;;;8.32;;
12675;SDS011;63820;65.654;21.944;2023-04-16T11:26:27;10.82;;;7.97;;
12675;SDS011;63820;65.654;21.944;2023-04-16T11:29:13;11.90;;;8.27;;
12675;SDS011;63820;65.654;21.944;2023-04-16T11:31:58;9.82;;;7.88;;
12675;SDS011;63820;65.654;21.944;2023-04-16T11:34:43;20.17;;;8.93;;
12675;SDS011;63820;65.654;21.944;2023-04-16T11:37:33;9.45;;;7.15;;
12675;SDS011;63820;65.654;21.944;2023-04-16T11:40:18;10.13;;;6.28;;
12675;SDS011;63820;65.654;21.944;2023-04-16T11:43:05;9.40;;;6.07;;
12675;SDS011;63820;65.654;21.944;2023-04-16T11:48:44;10.05;;;5.85;;
12675;SDS011;63820;65.654;21.944;2023-04-16T11:51:37;5.50;;;3.80;;
12675;SDS011;63820;65.654;21.944;2023-04-16T11:54:23;6.35;;;3.70;;
12675;SDS011;63820;65.654;21.944;2023-04-16T11:57:08;8.30;;;3.97;;
12675;SDS011;63820;65.654;21.944;2023-04-16T11:59:52;8.15;;;3.55;;
12675;SDS011;63820;65.654;21.944;2023-04-16T12:02:40;6.10;;;3.40;;
12675;SDS011;63820;65.654;21.944;2023-04-16T12:05:33;4.88;;;2.92;;
12675;SDS011;63820;65.654;21.944;2023-04-16T12:08:28;5.38;;;3.03;;
12675;SDS011;63820;65.654;21.944;2023-04-16T12:11:15;5.47;;;3.13;;
12675;SDS011;63820;65.654;21.944;2023-04-16T12:14:09;5.30;;;3.10;;
12675;SDS011;63820;65.654;21.944;2023-04-16T12:16:55;7.25;;;3.00;;
12675;SDS011;63820;65.654;21.944;2023-04-16T12:19:47;4.95;;;2.70;;
12675;SDS011;63820;65.654;21.944;2023-04-16T12:22:43;7.43;;;2.72;;
12675;SDS011;63820;65.654;21.944;2023-04-16T12:25:29;4.15;;;2.92;;
12675;SDS011;63820;65.654;21.944;2023-04-16T12:28:14;3.58;;;2.95;;
12675;SDS011;63820;65.654;21.944;2023-04-16T12:31:09;3.90;;;2.90;;
12675;SDS011;63820;65.654;21.944;2023-04-16T12:34:00;5.63;;;3.13;;
12675;SDS011;63820;65.654;21.944;2023-04-16T12:36:46;6.03;;;3.20;;
12675;SDS011;63820;65.654;21.944;2023-04-16T12:39:31;7.27;;;3.53;;
12675;SDS011;63820;65.654;21.944;2023-04-16T12:42:15;3.93;;;2.87;;
12675;SDS011;63820;65.654;21.944;2023-04-16T12:44:59;3.50;;;2.70;;
12675;SDS011;63820;65.654;21.944;2023-04-16T12:47:43;2.30;;;2.00;;
12675;SDS011;63820;65.654;21.944;2023-04-16T12:50:27;4.43;;;2.43;;
12675;SDS011;63820;65.654;21.944;2023-04-16T12:53:12;3.20;;;2.50;;
12675;SDS011;63820;65.654;21.944;2023-04-16T12:55:56;2.50;;;1.87;;
12675;SDS011;63820;65.654;21.944;2023-04-16T12:58:41;2.93;;;1.97;;
12675;SDS011;63820;65.654;21.944;2023-04-16T13:01:25;2.90;;;2.03;;
12675;SDS011;63820;65.654;21.944;2023-04-16T13:04:09;2.00;;;1.80;;
12675;SDS011;63820;65.654;21.944;2023-04-16T13:06:53;2.20;;;1.90;;
12675;SDS011;63820;65.654;21.944;2023-04-16T13:09:37;3.23;;;1.80;;
12675;SDS011;63820;65.654;21.944;2023-04-16T13:12:22;3.03;;;1.70;;
12675;SDS011;63820;65.654;21.944;2023-04-16T13:15:06;1.80;;;1.60;;
12675;SDS011;63820;65.654;21.944;2023-04-16T13:17:52;2.40;;;1.60;;
12675;SDS011;63820;65.654;21.944;2023-04-16T13:20:36;3.43;;;1.40;;
12675;SDS011;63820;65.654;21.944;2023-04-16T13:23:21;4.90;;;1.70;;
12675;SDS011;63820;65.654;21.944;2023-04-16T13:26:05;1.97;;;1.67;;
12675;SDS011;63820;65.654;21.944;2023-04-16T13:28:48;4.87;;;2.00;;
12675;SDS011;63820;65.654;21.944;2023-04-16T13:31:33;3.10;;;1.70;;
12675;SDS011;63820;65.654;21.944;2023-04-16T13:34:18;2.10;;;1.70;;
12675;SDS011;63820;65.654;21.944;2023-04-16T13:37:02;2.47;;;1.77;;
12675;SDS011;63820;65.654;21.944;2023-04-16T13:39:46;3.83;;;1.87;;
12675;SDS011;63820;65.654;21.944;2023-04-16T13:42:30;2.17;;;1.60;;
12675;SDS011;63820;65.654;21.944;2023-04-16T13:45:14;1.97;;;1.33;;
12675;SDS011;63820;65.654;21.944;2023-04-16T13:47:59;1.77;;;1.63;;
12675;SDS011;63820;65.654;21.944;2023-04-16T13:50:44;1.90;;;1.70;;
12675;SDS011;63820;65.654;21.944;2023-04-16T13:53:28;2.57;;;1.60;;
12675;SDS011;63820;65.654;21.944;2023-04-16T13:56:13;2.17;;;1.30;;
12675;SDS011;63820;65.654;21.944;2023-04-16T13:58:57;3.60;;;1.60;;
12675;SDS011;63820;65.654;21.944;2023-04-16T14:01:41;1.97;;;1.23;;
12675;SDS011;63820;65.654;21.944;2023-04-16T14:04:25;2.50;;;1.63;;
12675;SDS011;63820;65.654;21.944;2023-04-16T14:07:09;2.03;;;1.67;;
12675;SDS011;63820;65.654;21.944;2023-04-16T14:09:54;3.13;;;1.80;;
12675;SDS011;63820;65.654;21.944;2023-04-16T14:12:38;17.77;;;2.80;;
12675;SDS011;63820;65.654;21.944;2023-04-16T14:15:23;1.90;;;1.43;;
12675;SDS011;63820;65.654;21.944;2023-04-16T14:18:10;2.13;;;1.53;;
12675;SDS011;63820;65.654;21.944;2023-04-16T14:20:54;1.90;;;1.67;;
12675;SDS011;63820;65.654;21.944;2023-04-16T14:23:38;2.53;;;1.40;;
12675;SDS011;63820;65.654;21.944;2023-04-16T14:26:22;2.50;;;1.40;;
12675;SDS011;63820;65.654;21.944;2023-04-16T14:29:06;5.83;;;1.67;;
12675;SDS011;63820;65.654;21.944;2023-04-16T14:31:50;1.77;;;1.40;;
12675;SDS011;63820;65.654;21.944;2023-04-16T14:34:34;2.20;;;1.60;;
12675;SDS011;63820;65.654;21.944;2023-04-16T14:37:19;1.97;;;1.60;;
12675;SDS011;63820;65.654;21.944;2023-04-16T14:40:04;2.30;;;1.40;;
12675;SDS011;63820;65.654;21.944;2023-04-16T14:42:51;2.07;;;1.60;;
12675;SDS011;63820;65.654;21.944;2023-04-16T14:45:35;3.53;;;1.73;;
12675;SDS011;63820;65.654;21.944;2023-04-16T14:48:21;3.73;;;1.63;;
12675;SDS011;63820;65.654;21.944;2023-04-16T14:51:05;3.10;;;1.60;;
12675;SDS011;63820;65.654;21.944;2023-04-16T14:53:50;2.40;;;1.60;;
12675;SDS011;63820;65.654;21.944;2023-04-16T14:56:34;1.70;;;1.60;;
12675;SDS011;63820;65.654;21.944;2023-04-16T14:59:18;2.23;;;1.70;;
12675;SDS011;63820;65.654;21.944;2023-04-16T15:02:02;3.00;;;1.93;;
12675;SDS011;63820;65.654;21.944;2023-04-16T15:04:46;4.17;;;2.07;;
12675;SDS011;63820;65.654;21.944;2023-04-16T15:07:31;3.40;;;2.13;;
12675;SDS011;63820;65.654;21.944;2023-04-16T15:10:15;2.17;;;1.97;;
12675;SDS011;63820;65.654;21.944;2023-04-16T15:12:59;2.90;;;2.07;;
12675;SDS011;63820;65.654;21.944;2023-04-16T15:15:43;1.57;;;1.40;;
12675;SDS011;63820;65.654;21.944;2023-04-16T15:18:28;3.60;;;1.60;;
12675;SDS011;63820;65.654;21.944;2023-04-16T15:21:12;2.70;;;1.67;;
12675;SDS011;63820;65.654;21.944;2023-04-16T15:23:57;2.27;;;1.77;;
12675;SDS011;63820;65.654;21.944;2023-04-16T15:26:41;2.27;;;1.80;;
12675;SDS011;63820;65.654;21.944;2023-04-16T15:29:26;1.50;;;1.40;;
12675;SDS011;63820;65.654;21.944;2023-04-16T15:32:11;2.43;;;1.60;;
12675;SDS011;63820;65.654;21.944;2023-04-16T15:34:55;7.50;;;1.90;;
12675;SDS011;63820;65.654;21.944;2023-04-16T15:37:39;2.40;;;1.43;;
12675;SDS011;63820;65.654;21.944;2023-04-16T15:40:23;4.73;;;1.70;;
12675;SDS011;63820;65.654;21.944;2023-04-16T15:43:08;2.27;;;1.60;;
12675;SDS011;63820;65.654;21.944;2023-04-16T15:45:53;3.60;;;1.60;;
12675;SDS011;63820;65.654;21.944;2023-04-16T15:48:37;2.03;;;1.50;;
12675;SDS011;63820;65.654;21.944;2023-04-16T15:51:21;3.63;;;1.50;;
12675;SDS011;63820;65.654;21.944;2023-04-16T15:54:06;3.43;;;1.50;;
12675;SDS011;63820;65.654;21.944;2023-04-16T15:56:50;5.03;;;1.80;;
12675;SDS011;63820;65.654;21.944;2023-04-16T15:59:34;2.43;;;1.57;;
12675;SDS011;63820;65.654;21.944;2023-04-16T16:02:18;25.27;;;3.83;;
12675;SDS011;63820;65.654;21.944;2023-04-16T16:05:03;4.80;;;1.43;;
12675;SDS011;63820;65.654;21.944;2023-04-16T16:07:47;7.17;;;1.90;;
12675;SDS011;63820;65.654;21.944;2023-04-16T16:10:31;3.70;;;1.50;;
12675;SDS011;63820;65.654;21.944;2023-04-16T16:13:15;3.57;;;1.90;;
12675;SDS011;63820;65.654;21.944;2023-04-16T16:16:00;2.30;;;1.37;;
12675;SDS011;63820;65.654;21.944;2023-04-16T16:18:46;2.43;;;1.70;;
12675;SDS011;63820;65.654;21.944;2023-04-16T16:21:30;3.10;;;1.80;;
12675;SDS011;63820;65.654;21.944;2023-04-16T16:24:15;13.87;;;2.73;;